sensor_id;sensor_type;location;lat;lon;timestamp;pressure;altitude;pressure_sealevel;temperature;humidity
11808;BME280;5961;42.640;23.380;2023-11-21T00:02:16;93841.00;;;5.48;93.52
11808;BME280;5961;42.640;23.380;2023-11-21T00:04:44;93849.19;;;5.47;93.60
11808;BME280;5961;42.640;23.380;2023-11-21T00:07:11;93849.00;;;5.35;94.00
11808;BME280;5961;42.640;23.380;2023-11-21T00:09:38;93847.56;;;5.29;94.10
11808;BME280;5961;42.640;23.380;2023-11-21T00:12:04;93850.19;;;5.29;94.59
11808;BME280;5961;42.640;23.380;2023-11-21T00:14:35;93849.38;;;5.20;95.08
11808;BME280;5961;42.640;23.380;2023-11-21T00:17:02;93839.47;;;5.17;95.29
11808;BME280;5961;42.640;23.380;2023-11-21T00:19:29;93839.47;;;5.17;95.45
11808;BME280;5961;42.640;23.380;2023-11-21T00:21:57;93857.59;;;5.18;95.24
11808;BME280;5961;42.640;23.380;2023-11-21T00:24:24;93857.28;;;5.20;95.37
11808;BME280;5961;42.640;23.380;2023-11-21T00:26:51;93848.16;;;5.26;95.01
11808;BME280;5961;42.640;23.380;2023-11-21T00:29:18;93841.38;;;5.25;94.88
11808;BME280;5961;42.640;23.380;2023-11-21T00:31:45;93854.88;;;5.32;94.94
11808;BME280;5961;42.640;23.380;2023-11-21T00:34:12;93841.09;;;5.35;94.32
11808;BME280;5961;42.640;23.380;2023-11-21T00:36:39;93807.22;;;5.20;93.76
11808;BME280;5961;42.640;23.380;2023-11-21T00:39:07;93843.44;;;5.36;93.72
11808;BME280;5961;42.640;23.380;2023-11-21T00:41:34;93836.34;;;5.45;94.18
11808;BME280;5961;42.640;23.380;2023-11-21T00:44:01;93848.28;;;5.43;94.44
11808;BME280;5961;42.640;23.380;2023-11-21T00:46:28;93840.38;;;5.43;94.38
11808;BME280;5961;42.640;23.380;2023-11-21T00:48:55;93844.41;;;5.49;94.52
11808;BME280;5961;42.640;23.380;2023-11-21T00:51:22;93854.81;;;5.54;94.01
11808;BME280;5961;42.640;23.380;2023-11-21T00:53:50;93839.16;;;5.49;94.39
11808;BME280;5961;42.640;23.380;2023-11-21T00:56:18;93854.81;;;5.54;94.29
11808;BME280;5961;42.640;23.380;2023-11-21T00:58:45;93842.44;;;5.63;94.09
11808;BME280;5961;42.640;23.380;2023-11-21T01:01:15;93823.19;;;5.54;93.63
11808;BME280;5961;42.640;23.380;2023-11-21T01:03:42;93834.13;;;5.78;93.96
11808;BME280;5961;42.640;23.380;2023-11-21T01:06:08;93828.41;;;5.85;94.32
11808;BME280;5961;42.640;23.380;2023-11-21T01:08:35;93822.09;;;5.94;93.66
11808;BME280;5961;42.640;23.380;2023-11-21T01:11:02;93840.22;;;5.96;93.12
11808;BME280;5961;42.640;23.380;2023-11-21T01:13:31;93831.41;;;6.00;92.67
11808;BME280;5961;42.640;23.380;2023-11-21T01:15:58;93829.06;;;5.99;92.69
11808;BME280;5961;42.640;23.380;2023-11-21T01:18:24;93797.03;;;5.83;92.77
11808;BME280;5961;42.640;23.380;2023-11-21T01:20:51;93834.50;;;6.02;94.02
11808;BME280;5961;42.640;23.380;2023-11-21T01:23:19;93838.03;;;5.89;95.17
11808;BME280;5961;42.640;23.380;2023-11-21T01:25:46;93841.63;;;5.93;94.70
11808;BME280;5961;42.640;23.380;2023-11-21T01:28:12;93824.84;;;5.89;94.75
11808;BME280;5961;42.640;23.380;2023-11-21T01:30:41;93834.03;;;5.92;94.41
11808;BME280;5961;42.640;23.380;2023-11-21T01:33:07;93828.09;;;5.86;94.26
11808;BME280;5961;42.640;23.380;2023-11-21T01:35:34;93818.03;;;5.88;94.40
11808;BME280;5961;42.640;23.380;2023-11-21T01:38:01;93813.69;;;5.92;95.14
11808;BME280;5961;42.640;23.380;2023-11-21T01:40:29;93831.84;;;5.85;94.81
11808;BME280;5961;42.640;23.380;2023-11-21T01:42:56;93829.63;;;5.79;95.31
11808;BME280;5961;42.640;23.380;2023-11-21T01:45:23;93832.25;;;5.70;95.47
11808;BME280;5961;42.640;23.380;2023-11-21T01:47:52;93834.56;;;5.72;95.72
11808;BME280;5961;42.640;23.380;2023-11-21T01:50:18;93832.06;;;5.67;95.71
11808;BME280;5961;42.640;23.380;2023-11-21T01:52:47;93825.41;;;5.69;96.16
11808;BME280;5961;42.640;23.380;2023-11-21T01:55:16;93815.63;;;5.70;95.88
11808;BME280;5961;42.640;23.380;2023-11-21T01:57:45;93803.53;;;5.69;96.31
11808;BME280;5961;42.640;23.380;2023-11-21T02:00:13;93814.41;;;5.67;96.49
11808;BME280;5961;42.640;23.380;2023-11-21T02:02:42;93821.53;;;5.67;96.26
11808;BME280;5961;42.640;23.380;2023-11-21T02:05:12;93818.75;;;5.72;96.33
11808;BME280;5961;42.640;23.380;2023-11-21T02:07:38;93815.03;;;5.73;96.08
11808;BME280;5961;42.640;23.380;2023-11-21T02:10:06;93818.91;;;5.75;95.92
11808;BME280;5961;42.640;23.380;2023-11-21T02:12:33;93818.00;;;5.80;95.78
11808;BME280;5961;42.640;23.380;2023-11-21T02:15:00;93818.75;;;5.80;95.51
11808;BME280;5961;42.640;23.380;2023-11-21T02:17:28;93829.66;;;5.87;94.92
11808;BME280;5961;42.640;23.380;2023-11-21T02:19:55;93835.06;;;5.82;94.98
11808;BME280;5961;42.640;23.380;2023-11-21T02:22:24;93822.63;;;5.74;95.80
11808;BME280;5961;42.640;23.380;2023-11-21T02:24:53;93821.09;;;5.73;95.98
11808;BME280;5961;42.640;23.380;2023-11-21T02:27:20;93823.09;;;5.68;96.06
11808;BME280;5961;42.640;23.380;2023-11-21T02:29:48;93815.47;;;5.66;96.33
11808;BME280;5961;42.640;23.380;2023-11-21T02:32:15;93804.16;;;5.66;96.16
11808;BME280;5961;42.640;23.380;2023-11-21T02:34:44;93812.97;;;5.61;96.43
11808;BME280;5961;42.640;23.380;2023-11-21T02:37:11;93810.19;;;5.66;96.48
11808;BME280;5961;42.640;23.380;2023-11-21T02:39:38;93770.88;;;5.30;96.52
11808;BME280;5961;42.640;23.380;2023-11-21T02:42:06;93810.63;;;5.51;96.92
11808;BME280;5961;42.640;23.380;2023-11-21T02:44:33;93813.44;;;5.54;97.11
11808;BME280;5961;42.640;23.380;2023-11-21T02:47:01;93815.75;;;5.56;96.87
11808;BME280;5961;42.640;23.380;2023-11-21T02:49:28;93820.56;;;5.54;97.40
11808;BME280;5961;42.640;23.380;2023-11-21T02:51:56;93812.31;;;5.47;97.42
11808;BME280;5961;42.640;23.380;2023-11-21T02:54:23;93800.81;;;5.34;98.39
11808;BME280;5961;42.640;23.380;2023-11-21T02:56:50;93815.53;;;5.44;98.53
11808;BME280;5961;42.640;23.380;2023-11-21T02:59:18;93814.13;;;5.38;98.56
11808;BME280;5961;42.640;23.380;2023-11-21T03:01:45;93817.09;;;5.45;98.36
11808;BME280;5961;42.640;23.380;2023-11-21T03:04:12;93813.88;;;5.48;97.61
11808;BME280;5961;42.640;23.380;2023-11-21T03:06:43;93811.38;;;5.43;98.11
11808;BME280;5961;42.640;23.380;2023-11-21T03:09:10;93804.56;;;5.50;97.08
11808;BME280;5961;42.640;23.380;2023-11-21T03:11:37;93807.97;;;5.51;97.35
11808;BME280;5961;42.640;23.380;2023-11-21T03:14:04;93811.88;;;5.53;96.90
11808;BME280;5961;42.640;23.380;2023-11-21T03:16:32;93805.69;;;5.58;96.50
11808;BME280;5961;42.640;23.380;2023-11-21T03:18:59;93808.00;;;5.60;96.45
11808;BME280;5961;42.640;23.380;2023-11-21T03:21:26;93802.88;;;5.54;95.61
11808;BME280;5961;42.640;23.380;2023-11-21T03:23:52;93795.56;;;5.43;96.38
11808;BME280;5961;42.640;23.380;2023-11-21T03:26:19;93814.81;;;5.52;96.52
11808;BME280;5961;42.640;23.380;2023-11-21T03:28:46;93818.53;;;5.51;96.00
11808;BME280;5961;42.640;23.380;2023-11-21T03:31:13;93820.00;;;5.35;96.55
11808;BME280;5961;42.640;23.380;2023-11-21T03:33:42;93826.84;;;5.36;96.28
11808;BME280;5961;42.640;23.380;2023-11-21T03:36:11;93817.16;;;5.23;96.95
11808;BME280;5961;42.640;23.380;2023-11-21T03:38:38;93817.16;;;5.23;97.60
11808;BME280;5961;42.640;23.380;2023-11-21T03:41:05;93826.16;;;5.22;98.03
11808;BME280;5961;42.640;23.380;2023-11-21T03:43:32;93819.16;;;5.17;98.21
11808;BME280;5961;42.640;23.380;2023-11-21T03:45:58;93809.09;;;5.11;98.47
11808;BME280;5961;42.640;23.380;2023-11-21T03:48:25;93824.75;;;5.16;98.33
11808;BME280;5961;42.640;23.380;2023-11-21T03:50:53;93813.56;;;5.10;98.37
11808;BME280;5961;42.640;23.380;2023-11-21T03:53:20;93805.34;;;5.12;98.72
11808;BME280;5961;42.640;23.380;2023-11-21T03:55:47;93800.56;;;5.14;98.64
11808;BME280;5961;42.640;23.380;2023-11-21T03:58:14;93785.50;;;5.06;99.34
11808;BME280;5961;42.640;23.380;2023-11-21T04:00:41;93794.63;;;5.08;99.01
11808;BME280;5961;42.640;23.380;2023-11-21T04:03:08;93790.75;;;5.06;99.34
11808;BME280;5961;42.640;23.380;2023-11-21T04:05:34;93800.06;;;5.12;98.80
11808;BME280;5961;42.640;23.380;2023-11-21T04:08:03;93788.31;;;5.09;98.84
11808;BME280;5961;42.640;23.380;2023-11-21T04:10:30;93787.41;;;5.14;99.16
11808;BME280;5961;42.640;23.380;2023-11-21T04:12:56;93796.69;;;5.20;98.65
11808;BME280;5961;42.640;23.380;2023-11-21T04:15:23;93786.34;;;5.23;98.24
11808;BME280;5961;42.640;23.380;2023-11-21T04:17:50;93783.41;;;5.25;97.95
11808;BME280;5961;42.640;23.380;2023-11-21T04:20:17;93785.44;;;5.28;97.72
11808;BME280;5961;42.640;23.380;2023-11-21T04:22:44;93791.16;;;5.30;97.99
11808;BME280;5961;42.640;23.380;2023-11-21T04:25:15;93796.44;;;5.30;97.72
11808;BME280;5961;42.640;23.380;2023-11-21T04:27:44;93783.59;;;5.28;97.66
11808;BME280;5961;42.640;23.380;2023-11-21T04:30:11;93785.47;;;5.36;98.19
11808;BME280;5961;42.640;23.380;2023-11-21T04:32:38;93788.28;;;5.40;97.51
11808;BME280;5961;42.640;23.380;2023-11-21T04:35:06;93786.72;;;5.39;97.73
11808;BME280;5961;42.640;23.380;2023-11-21T04:37:34;93792.78;;;5.48;96.01
11808;BME280;5961;42.640;23.380;2023-11-21T04:40:01;93792.00;;;5.47;96.34
11808;BME280;5961;42.640;23.380;2023-11-21T04:42:33;93799.13;;;5.47;95.92
11808;BME280;5961;42.640;23.380;2023-11-21T04:45:00;93787.84;;;5.46;95.65
11808;BME280;5961;42.640;23.380;2023-11-21T04:47:30;93790.59;;;5.41;95.70
11808;BME280;5961;42.640;23.380;2023-11-21T04:49:57;93783.16;;;5.43;95.70
11808;BME280;5961;42.640;23.380;2023-11-21T04:52:24;93797.28;;;5.47;96.69
11808;BME280;5961;42.640;23.380;2023-11-21T04:54:50;93801.75;;;5.47;96.36
11808;BME280;5961;42.640;23.380;2023-11-21T04:57:19;93807.03;;;5.47;96.47
11808;BME280;5961;42.640;23.380;2023-11-21T04:59:48;93803.03;;;5.49;96.61
11808;BME280;5961;42.640;23.380;2023-11-21T05:02:15;93800.41;;;5.49;96.62
11808;BME280;5961;42.640;23.380;2023-11-21T05:04:44;93791.50;;;5.37;96.91
11808;BME280;5961;42.640;23.380;2023-11-21T05:07:11;93797.41;;;5.34;97.14
11808;BME280;5961;42.640;23.380;2023-11-21T05:09:41;93806.03;;;5.26;98.00
11808;BME280;5961;42.640;23.380;2023-11-21T05:12:09;93806.16;;;5.21;98.66
11808;BME280;5961;42.640;23.380;2023-11-21T05:14:36;93796.97;;;5.10;98.88
11808;BME280;5961;42.640;23.380;2023-11-21T05:17:05;93784.88;;;5.09;99.24
11808;BME280;5961;42.640;23.380;2023-11-21T05:19:33;93781.31;;;5.05;99.89
11808;BME280;5961;42.640;23.380;2023-11-21T05:22:00;93773.53;;;4.99;100.00
11808;BME280;5961;42.640;23.380;2023-11-21T05:24:27;93784.56;;;5.02;99.95
11808;BME280;5961;42.640;23.380;2023-11-21T05:26:54;93777.72;;;5.01;100.00
11808;BME280;5961;42.640;23.380;2023-11-21T05:29:21;93783.13;;;4.95;100.00
11808;BME280;5961;42.640;23.380;2023-11-21T05:31:48;93792.84;;;4.86;100.00
11808;BME280;5961;42.640;23.380;2023-11-21T05:34:16;93804.09;;;4.78;100.00
11808;BME280;5961;42.640;23.380;2023-11-21T05:36:43;93800.63;;;4.69;100.00
11808;BME280;5961;42.640;23.380;2023-11-21T05:39:11;93795.50;;;4.64;100.00
11808;BME280;5961;42.640;23.380;2023-11-21T05:41:37;93798.19;;;4.73;100.00
11808;BME280;5961;42.640;23.380;2023-11-21T05:44:04;93775.66;;;4.58;100.00
11808;BME280;5961;42.640;23.380;2023-11-21T05:46:31;93802.72;;;4.81;100.00
11808;BME280;5961;42.640;23.380;2023-11-21T05:48:58;93801.22;;;4.88;100.00
11808;BME280;5961;42.640;23.380;2023-11-21T05:51:26;93805.44;;;4.98;100.00
11808;BME280;5961;42.640;23.380;2023-11-21T05:53:53;93800.81;;;5.04;100.00
11808;BME280;5961;42.640;23.380;2023-11-21T05:56:20;93788.91;;;5.06;100.00
11808;BME280;5961;42.640;23.380;2023-11-21T05:58:47;93793.41;;;5.14;100.00
11808;BME280;5961;42.640;23.380;2023-11-21T06:01:14;93801.34;;;5.23;98.91
11808;BME280;5961;42.640;23.380;2023-11-21T06:03:40;93794.22;;;5.15;97.68
11808;BME280;5961;42.640;23.380;2023-11-21T06:06:08;93805.69;;;5.19;98.13
11808;BME280;5961;42.640;23.380;2023-11-21T06:08:36;93802.09;;;5.15;99.36
11808;BME280;5961;42.640;23.380;2023-11-21T06:11:03;93797.78;;;5.19;98.84
11808;BME280;5961;42.640;23.380;2023-11-21T06:13:30;93795.44;;;5.17;98.68
11808;BME280;5961;42.640;23.380;2023-11-21T06:15:59;93796.03;;;5.06;99.66
11808;BME280;5961;42.640;23.380;2023-11-21T06:18:26;93817.69;;;5.03;100.00
11808;BME280;5961;42.640;23.380;2023-11-21T06:20:53;93823.75;;;5.03;100.00
11808;BME280;5961;42.640;23.380;2023-11-21T06:23:20;93813.03;;;4.99;100.00
11808;BME280;5961;42.640;23.380;2023-11-21T06:25:48;93812.09;;;4.95;100.00
11808;BME280;5961;42.640;23.380;2023-11-21T06:28:15;93820.59;;;4.92;100.00
11808;BME280;5961;42.640;23.380;2023-11-21T06:30:43;93841.00;;;4.87;100.00
11808;BME280;5961;42.640;23.380;2023-11-21T06:33:09;93823.47;;;4.82;100.00
11808;BME280;5961;42.640;23.380;2023-11-21T06:35:36;93808.53;;;4.69;100.00
11808;BME280;5961;42.640;23.380;2023-11-21T06:38:03;93823.94;;;4.84;100.00
11808;BME280;5961;42.640;23.380;2023-11-21T06:40:30;93822.09;;;4.85;100.00
11808;BME280;5961;42.640;23.380;2023-11-21T06:43:00;93831.75;;;4.89;100.00
11808;BME280;5961;42.640;23.380;2023-11-21T06:45:27;93836.50;;;4.87;100.00
11808;BME280;5961;42.640;23.380;2023-11-21T06:47:54;93834.53;;;4.93;100.00
11808;BME280;5961;42.640;23.380;2023-11-21T06:50:20;93819.69;;;4.97;100.00
11808;BME280;5961;42.640;23.380;2023-11-21T06:52:47;93837.09;;;5.07;100.00
11808;BME280;5961;42.640;23.380;2023-11-21T06:55:15;93837.13;;;5.15;100.00
11808;BME280;5961;42.640;23.380;2023-11-21T06:57:42;93833.16;;;5.26;100.00
11808;BME280;5961;42.640;23.380;2023-11-21T07:00:12;93837.22;;;5.32;100.00
11808;BME280;5961;42.640;23.380;2023-11-21T07:02:40;93826.84;;;5.36;100.00
11808;BME280;5961;42.640;23.380;2023-11-21T07:05:07;93833.56;;;5.50;100.00
11808;BME280;5961;42.640;23.380;2023-11-21T07:07:34;93838.13;;;5.67;100.00
11808;BME280;5961;42.640;23.380;2023-11-21T07:10:03;93834.72;;;5.75;100.00
11808;BME280;5961;42.640;23.380;2023-11-21T07:12:31;93834.78;;;5.92;100.00
11808;BME280;5961;42.640;23.380;2023-11-21T07:14:58;93828.28;;;5.98;100.00
11808;BME280;5961;42.640;23.380;2023-11-21T07:17:26;93830.03;;;6.12;100.00
11808;BME280;5961;42.640;23.380;2023-11-21T07:19:53;93826.31;;;6.21;100.00
11808;BME280;5961;42.640;23.380;2023-11-21T07:22:20;93829.72;;;6.30;100.00
11808;BME280;5961;42.640;23.380;2023-11-21T07:24:48;93839.22;;;6.40;100.00
11808;BME280;5961;42.640;23.380;2023-11-21T07:27:16;93831.44;;;6.43;99.57
11808;BME280;5961;42.640;23.380;2023-11-21T07:29:43;93835.31;;;6.54;98.68
11808;BME280;5961;42.640;23.380;2023-11-21T07:32:10;93844.31;;;6.53;97.75
11808;BME280;5961;42.640;23.380;2023-11-21T07:34:40;93832.34;;;6.56;98.00
11808;BME280;5961;42.640;23.380;2023-11-21T07:37:06;93829.59;;;6.61;97.82
11808;BME280;5961;42.640;23.380;2023-11-21T07:39:34;93832.84;;;6.67;97.86
11808;BME280;5961;42.640;23.380;2023-11-21T07:42:01;93833.44;;;6.72;96.97
11808;BME280;5961;42.640;23.380;2023-11-21T07:44:28;93837.81;;;6.77;96.98
11808;BME280;5961;42.640;23.380;2023-11-21T07:46:54;93837.94;;;6.80;96.69
11808;BME280;5961;42.640;23.380;2023-11-21T07:49:23;93841.97;;;6.86;96.25
11808;BME280;5961;42.640;23.380;2023-11-21T07:51:51;93838.41;;;6.91;95.80
11808;BME280;5961;42.640;23.380;2023-11-21T07:54:18;93833.28;;;6.94;95.61
11808;BME280;5961;42.640;23.380;2023-11-21T07:56:44;93820.22;;;6.89;95.42
11808;BME280;5961;42.640;23.380;2023-11-21T07:59:11;93843.81;;;7.03;95.06
11808;BME280;5961;42.640;23.380;2023-11-21T08:01:39;93835.56;;;7.04;94.64
11808;BME280;5961;42.640;23.380;2023-11-21T08:04:08;93821.28;;;7.05;94.36
11808;BME280;5961;42.640;23.380;2023-11-21T08:06:35;93824.53;;;7.02;94.02
11808;BME280;5961;42.640;23.380;2023-11-21T08:09:03;93817.22;;;7.08;93.72
11808;BME280;5961;42.640;23.380;2023-11-21T08:11:30;93822.22;;;7.09;94.14
11808;BME280;5961;42.640;23.380;2023-11-21T08:13:58;93811.31;;;7.11;93.87
11808;BME280;5961;42.640;23.380;2023-11-21T08:16:25;93803.53;;;7.14;94.13
11808;BME280;5961;42.640;23.380;2023-11-21T08:18:52;93821.41;;;7.17;93.81
11808;BME280;5961;42.640;23.380;2023-11-21T08:21:19;93816.41;;;7.25;93.76
11808;BME280;5961;42.640;23.380;2023-11-21T08:23:46;93817.94;;;7.26;93.99
11808;BME280;5961;42.640;23.380;2023-11-21T08:26:20;93826.16;;;7.33;93.67
11808;BME280;5961;42.640;23.380;2023-11-21T08:28:47;93804.25;;;7.32;93.58
11808;BME280;5961;42.640;23.380;2023-11-21T08:31:14;93826.13;;;7.41;93.87
11808;BME280;5961;42.640;23.380;2023-11-21T08:33:41;93823.34;;;7.46;93.16
11808;BME280;5961;42.640;23.380;2023-11-21T08:36:08;93824.38;;;7.54;93.17
11808;BME280;5961;42.640;23.380;2023-11-21T08:38:36;93808.69;;;7.49;92.91
11808;BME280;5961;42.640;23.380;2023-11-21T08:41:05;93822.81;;;7.61;92.71
11808;BME280;5961;42.640;23.380;2023-11-21T08:43:34;93822.28;;;7.68;92.64
11808;BME280;5961;42.640;23.380;2023-11-21T08:46:05;93822.13;;;7.73;92.21
11808;BME280;5961;42.640;23.380;2023-11-21T08:48:35;93771.50;;;7.54;92.23
11808;BME280;5961;42.640;23.380;2023-11-21T08:51:02;93824.09;;;7.85;91.45
11808;BME280;5961;42.640;23.380;2023-11-21T08:53:30;93820.47;;;7.89;91.48
11808;BME280;5961;42.640;23.380;2023-11-21T08:55:57;93811.44;;;7.90;91.22
11808;BME280;5961;42.640;23.380;2023-11-21T08:58:24;93820.41;;;7.98;90.82
11808;BME280;5961;42.640;23.380;2023-11-21T09:00:52;93813.84;;;8.04;90.94
11808;BME280;5961;42.640;23.380;2023-11-21T09:03:18;93811.34;;;8.07;90.51
11808;BME280;5961;42.640;23.380;2023-11-21T09:05:45;93813.34;;;8.10;90.37
11808;BME280;5961;42.640;23.380;2023-11-21T09:08:12;93795.53;;;8.19;90.78
11808;BME280;5961;42.640;23.380;2023-11-21T09:10:39;93779.97;;;8.18;90.48
11808;BME280;5961;42.640;23.380;2023-11-21T09:13:07;93772.16;;;8.21;91.17
11808;BME280;5961;42.640;23.380;2023-11-21T09:15:35;93768.88;;;8.24;91.00
11808;BME280;5961;42.640;23.380;2023-11-21T09:18:04;93757.50;;;8.24;91.45
11808;BME280;5961;42.640;23.380;2023-11-21T09:20:31;93749.22;;;8.25;91.64
11808;BME280;5961;42.640;23.380;2023-11-21T09:22:58;93744.59;;;8.22;92.11
11808;BME280;5961;42.640;23.380;2023-11-21T09:25:25;93751.44;;;8.23;92.20
11808;BME280;5961;42.640;23.380;2023-11-21T09:27:51;93738.97;;;8.24;92.47
11808;BME280;5961;42.640;23.380;2023-11-21T09:30:18;93727.63;;;8.23;92.70
11808;BME280;5961;42.640;23.380;2023-11-21T09:32:45;93738.34;;;8.27;92.34
11808;BME280;5961;42.640;23.380;2023-11-21T09:35:14;93723.25;;;8.27;92.52
11808;BME280;5961;42.640;23.380;2023-11-21T09:37:41;93713.09;;;8.30;92.46
11808;BME280;5961;42.640;23.380;2023-11-21T09:40:10;93697.84;;;8.26;92.43
11808;BME280;5961;42.640;23.380;2023-11-21T09:42:40;93705.59;;;8.32;92.34
11808;BME280;5961;42.640;23.380;2023-11-21T09:45:16;93706.50;;;8.36;92.32
11808;BME280;5961;42.640;23.380;2023-11-21T09:47:46;93703.09;;;8.35;92.28
11808;BME280;5961;42.640;23.380;2023-11-21T09:50:17;93687.19;;;8.35;92.08
11808;BME280;5961;42.640;23.380;2023-11-21T09:52:53;93688.41;;;8.38;92.13
11808;BME280;5961;42.640;23.380;2023-11-21T09:55:24;93665.81;;;8.40;92.09
11808;BME280;5961;42.640;23.380;2023-11-21T09:57:56;93676.53;;;8.44;91.96
11808;BME280;5961;42.640;23.380;2023-11-21T10:00:25;93661.09;;;8.46;91.95
11808;BME280;5961;42.640;23.380;2023-11-21T10:02:53;93654.94;;;8.54;91.71
11808;BME280;5961;42.640;23.380;2023-11-21T10:05:21;93642.13;;;8.56;90.72
11808;BME280;5961;42.640;23.380;2023-11-21T10:07:49;93649.66;;;8.66;90.61
11808;BME280;5961;42.640;23.380;2023-11-21T10:10:18;93651.00;;;8.72;90.39
11808;BME280;5961;42.640;23.380;2023-11-21T10:12:49;93651.22;;;8.79;90.48
11808;BME280;5961;42.640;23.380;2023-11-21T10:15:21;93650.66;;;8.86;90.45
11808;BME280;5961;42.640;23.380;2023-11-21T10:17:49;93647.94;;;8.94;89.87
11808;BME280;5961;42.640;23.380;2023-11-21T10:20:16;93645.94;;;9.03;89.61
11808;BME280;5961;42.640;23.380;2023-11-21T10:22:44;93635.22;;;9.12;89.10
11808;BME280;5961;42.640;23.380;2023-11-21T10:25:11;93636.97;;;9.20;88.52
11808;BME280;5961;42.640;23.380;2023-11-21T10:27:40;93627.03;;;9.29;88.17
11808;BME280;5961;42.640;23.380;2023-11-21T10:30:10;93627.25;;;9.36;87.15
11808;BME280;5961;42.640;23.380;2023-11-21T10:32:38;93627.13;;;9.45;86.32
11808;BME280;5961;42.640;23.380;2023-11-21T10:35:06;93632.66;;;9.52;85.15
11808;BME280;5961;42.640;23.380;2023-11-21T10:37:35;93635.50;;;9.59;85.49
11808;BME280;5961;42.640;23.380;2023-11-21T10:40:07;93630.72;;;9.64;84.55
11808;BME280;5961;42.640;23.380;2023-11-21T10:42:34;93623.66;;;9.68;84.34
11808;BME280;5961;42.640;23.380;2023-11-21T10:45:01;93613.13;;;9.72;84.08
11808;BME280;5961;42.640;23.380;2023-11-21T10:47:31;93612.47;;;9.75;83.56
11808;BME280;5961;42.640;23.380;2023-11-21T10:50:00;93614.97;;;9.83;82.81
11808;BME280;5961;42.640;23.380;2023-11-21T10:52:27;93618.00;;;9.82;82.44
11808;BME280;5961;42.640;23.380;2023-11-21T10:54:54;93616.63;;;9.88;82.51
11808;BME280;5961;42.640;23.380;2023-11-21T10:57:22;93569.81;;;9.68;82.30
11808;BME280;5961;42.640;23.380;2023-11-21T10:59:54;93612.19;;;9.92;82.65
11808;BME280;5961;42.640;23.380;2023-11-21T11:02:24;93607.56;;;9.89;82.96
11808;BME280;5961;42.640;23.380;2023-11-21T11:04:53;93590.00;;;9.84;82.64
11808;BME280;5961;42.640;23.380;2023-11-21T11:07:21;93599.25;;;9.90;82.75
11808;BME280;5961;42.640;23.380;2023-11-21T11:09:52;93600.03;;;9.91;82.66
11808;BME280;5961;42.640;23.380;2023-11-21T11:12:19;93595.47;;;9.91;82.76
11808;BME280;5961;42.640;23.380;2023-11-21T11:14:48;93605.34;;;9.91;82.50
11808;BME280;5961;42.640;23.380;2023-11-21T11:17:15;93601.56;;;9.92;82.75
11808;BME280;5961;42.640;23.380;2023-11-21T11:19:46;93586.41;;;9.92;82.29
11808;BME280;5961;42.640;23.380;2023-11-21T11:22:25;93570.38;;;9.89;82.35
11808;BME280;5961;42.640;23.380;2023-11-21T11:25:15;93574.34;;;9.95;82.53
11808;BME280;5961;42.640;23.380;2023-11-21T11:27:53;93560.66;;;9.93;82.35
11808;BME280;5961;42.640;23.380;2023-11-21T11:30:32;93551.59;;;9.94;82.65
11808;BME280;5961;42.640;23.380;2023-11-21T11:33:11;93560.41;;;9.98;82.85
11808;BME280;5961;42.640;23.380;2023-11-21T11:35:48;93546.03;;;9.99;83.32
11808;BME280;5961;42.640;23.380;2023-11-21T11:38:21;93544.91;;;10.00;83.53
11808;BME280;5961;42.640;23.380;2023-11-21T11:40:52;93543.38;;;9.99;83.21
11808;BME280;5961;42.640;23.380;2023-11-21T11:43:25;93543.47;;;10.03;83.33
11808;BME280;5961;42.640;23.380;2023-11-21T11:45:55;93537.38;;;10.02;83.22
11808;BME280;5961;42.640;23.380;2023-11-21T11:48:22;93541.13;;;10.01;82.66
11808;BME280;5961;42.640;23.380;2023-11-21T11:51:05;93538.13;;;9.87;82.77
11808;BME280;5961;42.640;23.380;2023-11-21T11:53:38;93562.53;;;9.92;82.71
11808;BME280;5961;42.640;23.380;2023-11-21T11:56:34;93566.06;;;9.97;82.82
11808;BME280;5961;42.640;23.380;2023-11-21T11:59:03;93559.19;;;9.96;82.89
11808;BME280;5961;42.640;23.380;2023-11-21T12:01:33;93558.09;;;9.97;82.98
11808;BME280;5961;42.640;23.380;2023-11-21T12:04:25;93554.66;;;9.96;82.39
11808;BME280;5961;42.640;23.380;2023-11-21T12:07:00;93562.09;;;9.90;82.40
11808;BME280;5961;42.640;23.380;2023-11-21T12:09:30;93550.28;;;9.88;82.48
11808;BME280;5961;42.640;23.380;2023-11-21T12:11:58;93555.81;;;9.83;82.33
11808;BME280;5961;42.640;23.380;2023-11-21T12:14:25;93546.56;;;9.77;82.51
11808;BME280;5961;42.640;23.380;2023-11-21T12:16:53;93549.88;;;9.74;83.19
11808;BME280;5961;42.640;23.380;2023-11-21T12:19:20;93557.84;;;9.74;83.80
11808;BME280;5961;42.640;23.380;2023-11-21T12:21:48;93557.00;;;9.70;84.53
11808;BME280;5961;42.640;23.380;2023-11-21T12:24:16;93569.13;;;9.71;84.91
11808;BME280;5961;42.640;23.380;2023-11-21T12:26:43;93539.56;;;9.57;85.50
11808;BME280;5961;42.640;23.380;2023-11-21T12:29:10;93515.16;;;9.51;86.01
11808;BME280;5961;42.640;23.380;2023-11-21T12:31:38;93544.41;;;9.67;86.34
11808;BME280;5961;42.640;23.380;2023-11-21T12:34:06;93555.69;;;9.64;87.08
11808;BME280;5961;42.640;23.380;2023-11-21T12:36:37;93547.28;;;9.62;86.48
11808;BME280;5961;42.640;23.380;2023-11-21T12:39:04;93523.69;;;9.45;86.78
11808;BME280;5961;42.640;23.380;2023-11-21T12:41:31;93554.28;;;9.54;87.29
11808;BME280;5961;42.640;23.380;2023-11-21T12:43:58;93561.03;;;9.52;87.95
11808;BME280;5961;42.640;23.380;2023-11-21T12:46:25;93554.28;;;9.54;87.07
11808;BME280;5961;42.640;23.380;2023-11-21T12:48:54;93533.88;;;9.43;87.47
11808;BME280;5961;42.640;23.380;2023-11-21T12:51:23;93531.78;;;9.36;87.13
11808;BME280;5961;42.640;23.380;2023-11-21T12:53:50;93545.03;;;9.48;87.17
11808;BME280;5961;42.640;23.380;2023-11-21T12:56:18;93537.16;;;9.52;87.36
11808;BME280;5961;42.640;23.380;2023-11-21T12:58:48;93512.63;;;9.55;87.64
11808;BME280;5961;42.640;23.380;2023-11-21T13:01:16;93484.16;;;9.40;87.79
11808;BME280;5961;42.640;23.380;2023-11-21T13:03:46;93526.31;;;9.57;87.65
11808;BME280;5961;42.640;23.380;2023-11-21T13:06:17;93521.00;;;9.57;88.92
11808;BME280;5961;42.640;23.380;2023-11-21T13:08:48;93508.00;;;9.52;88.69
11808;BME280;5961;42.640;23.380;2023-11-21T13:11:15;93504.84;;;9.62;88.37
11808;BME280;5961;42.640;23.380;2023-11-21T13:13:43;93508.38;;;9.66;88.51
11808;BME280;5961;42.640;23.380;2023-11-21T13:16:38;93510.75;;;9.71;88.95